createdAt,value
2019-02-11T00:00:14.858Z,23.50
2019-02-11T00:02:45.325Z,23.30
2019-02-11T00:05:15.732Z,24.13
2019-02-11T00:07:46.172Z,24.53
2019-02-11T00:10:16.537Z,23.33
2019-02-11T00:12:47.076Z,23.83
2019-02-11T00:15:17.501Z,23.20
2019-02-11T00:17:48.026Z,22.30
2019-02-11T00:20:18.494Z,22.60
2019-02-11T00:22:48.907Z,24.10
2019-02-11T00:25:19.301Z,23.53
2019-02-11T00:27:55.258Z,25.33
2019-02-11T00:30:25.820Z,24.23
2019-02-11T00:32:57.025Z,24.30
2019-02-11T00:35:27.560Z,24.53
2019-02-11T00:37:58.049Z,23.77
2019-02-11T00:40:28.608Z,23.47
2019-02-11T00:42:59.045Z,23.73
2019-02-11T00:45:29.522Z,24.27
2019-02-11T00:48:00.055Z,22.80
2019-02-11T00:50:30.501Z,25.23
2019-02-11T00:53:00.910Z,25.10
2019-02-11T00:55:31.367Z,25.33
2019-02-11T00:58:01.757Z,23.33
2019-02-11T01:00:32.285Z,24.00
2019-02-11T01:03:02.672Z,22.77
2019-02-11T01:05:33.140Z,23.10
2019-02-11T01:08:03.711Z,24.23
2019-02-11T01:10:34.125Z,22.27
2019-02-11T01:13:06.191Z,23.80
2019-02-11T01:15:36.676Z,22.63
2019-02-11T01:18:07.227Z,23.77
2019-02-11T01:20:37.612Z,21.77
2019-02-11T01:23:08.217Z,22.47
2019-02-11T01:25:38.782Z,22.80
2019-02-11T01:28:09.785Z,21.53
2019-02-11T01:30:40.181Z,23.20
2019-02-11T01:33:12.577Z,22.10
2019-02-11T01:35:43.115Z,23.73
2019-02-11T01:38:13.482Z,23.30
2019-02-11T01:40:43.940Z,23.57
2019-02-11T01:43:14.323Z,23.17
2019-02-11T01:45:44.944Z,22.53
2019-02-11T01:48:15.330Z,21.93
2019-02-11T01:50:45.801Z,24.77
2019-02-11T01:53:16.275Z,23.53
2019-02-11T01:55:46.885Z,23.60
2019-02-11T01:58:17.324Z,22.63
2019-02-11T02:00:47.820Z,24.07
2019-02-11T02:03:18.230Z,22.63
2019-02-11T02:05:48.628Z,23.07
2019-02-11T02:08:19.108Z,24.63
2019-02-11T02:10:49.711Z,21.83
2019-02-11T02:13:20.089Z,21.93
2019-02-11T02:15:50.485Z,21.77
2019-02-11T02:18:20.972Z,21.30
2019-02-11T02:20:52.158Z,22.03
2019-02-11T02:23:22.619Z,21.70
2019-02-11T02:25:53.187Z,21.03
2019-02-11T02:28:23.664Z,21.73
2019-02-11T02:30:54.043Z,21.87
2019-02-11T02:33:24.653Z,21.50
2019-02-11T02:35:55.060Z,21.07
2019-02-11T02:38:25.542Z,21.07
2019-02-11T02:40:56.020Z,21.20
2019-02-11T02:43:26.393Z,20.97
2019-02-11T02:45:56.763Z,21.57
2019-02-11T02:48:27.317Z,22.67
2019-02-11T02:50:57.818Z,22.40
2019-02-11T02:53:29.079Z,21.17
2019-02-11T02:55:59.492Z,24.20
2019-02-11T02:58:29.908Z,24.77
2019-02-11T03:01:00.497Z,22.77
2019-02-11T03:03:30.897Z,25.03
2019-02-11T03:06:01.265Z,25.93
2019-02-11T03:08:31.778Z,23.67
2019-02-11T03:11:02.346Z,24.30
2019-02-11T03:13:32.841Z,23.23
2019-02-11T03:16:03.297Z,23.70
2019-02-11T03:18:33.671Z,23.17
2019-02-11T03:21:04.038Z,22.67
2019-02-11T03:23:34.445Z,17.07
2019-02-11T03:26:05.063Z,21.00
2019-02-11T03:28:35.501Z,22.13
2019-02-11T03:31:05.967Z,21.53
2019-02-11T03:33:37.695Z,21.53
2019-02-11T03:36:08.158Z,21.67
2019-02-11T03:38:38.549Z,21.50
2019-02-11T03:41:09.036Z,21.60
2019-02-11T03:43:39.398Z,19.10
2019-02-11T03:46:09.941Z,20.23
2019-02-11T03:48:40.332Z,22.43
2019-02-11T03:51:10.686Z,20.77
2019-02-11T03:53:41.153Z,22.17
2019-02-11T03:56:11.597Z,21.73
2019-02-11T03:58:42.102Z,21.23
2019-02-11T04:01:12.720Z,21.63
2019-02-11T04:03:43.111Z,19.57
2019-02-11T04:06:13.560Z,14.47
2019-02-11T04:08:43.948Z,11.60
2019-02-11T04:11:14.486Z,11.53
2019-02-11T04:13:44.983Z,9.90
2019-02-11T04:16:15.847Z,9.40
2019-02-11T04:18:46.303Z,8.37
2019-02-11T04:21:16.792Z,8.47
2019-02-11T04:23:48.045Z,8.00
2019-02-11T04:26:19.515Z,8.77
2019-02-11T04:28:49.988Z,8.90
2019-02-11T04:31:20.425Z,9.17
2019-02-11T04:33:51.730Z,9.10
2019-02-11T04:36:22.599Z,9.67
2019-02-11T04:38:52.985Z,8.23
2019-02-11T04:41:23.367Z,9.67
2019-02-11T04:43:54.785Z,9.10
2019-02-11T04:46:25.239Z,9.27
2019-02-11T04:48:55.664Z,9.10
2019-02-11T04:51:26.111Z,9.20
2019-02-11T04:53:56.643Z,10.40
2019-02-11T04:56:27.075Z,9.83
2019-02-11T04:58:57.497Z,9.83
2019-02-11T05:01:28.042Z,10.57
2019-02-11T05:03:58.550Z,10.13
2019-02-11T05:06:29.019Z,10.83
2019-02-11T05:08:59.598Z,10.47
2019-02-11T05:11:29.953Z,9.83
2019-02-11T05:14:00.403Z,10.40
2019-02-11T05:16:30.806Z,10.70
2019-02-11T05:19:01.240Z,10.60
2019-02-11T05:21:31.616Z,10.13
2019-02-11T05:24:01.970Z,9.93
2019-02-11T05:26:32.483Z,9.70
2019-02-11T05:29:02.920Z,9.30
2019-02-11T05:31:33.719Z,9.63
2019-02-11T05:34:05.221Z,9.80
2019-02-11T05:36:35.665Z,9.43
2019-02-11T05:39:07.125Z,10.03
2019-02-11T05:41:37.622Z,9.70
2019-02-11T05:44:08.105Z,9.93
2019-02-11T05:46:38.591Z,10.20
2019-02-11T05:49:08.986Z,10.37
2019-02-11T05:51:39.490Z,9.50
2019-02-11T05:54:09.978Z,10.27
2019-02-11T05:56:40.370Z,11.07
2019-02-11T05:59:10.915Z,10.97
2019-02-11T06:01:41.417Z,11.63
2019-02-11T06:04:11.948Z,11.13
2019-02-11T06:06:42.370Z,12.10
2019-02-11T06:09:12.750Z,12.37
2019-02-11T06:11:43.389Z,12.07
2019-02-11T06:14:13.869Z,13.10
2019-02-11T06:16:44.364Z,14.03
2019-02-11T06:19:14.755Z,13.43
2019-02-11T06:21:45.158Z,14.07
2019-02-11T06:24:15.728Z,16.37
2019-02-11T06:26:46.126Z,13.07
2019-02-11T06:29:16.549Z,13.80
2019-02-11T06:31:47.118Z,14.83
2019-02-11T06:34:18.286Z,15.53
2019-02-11T06:36:48.725Z,15.33
2019-02-11T06:39:20.429Z,14.47
2019-02-11T06:41:51.005Z,14.87
2019-02-11T06:44:24.365Z,15.37
2019-02-11T06:46:54.820Z,14.93
2019-02-11T06:49:25.310Z,14.90
2019-02-11T06:51:55.695Z,13.57
2019-02-11T06:54:26.103Z,13.00
2019-02-11T06:56:56.506Z,12.70
2019-02-11T06:59:26.917Z,12.80
2019-02-11T07:01:57.350Z,11.37
2019-02-11T07:04:27.725Z,11.13
2019-02-11T07:06:58.166Z,11.27
2019-02-11T07:09:28.619Z,13.13
2019-02-11T07:11:59.074Z,13.90
2019-02-11T07:14:29.496Z,10.47
2019-02-11T07:16:59.864Z,10.70
2019-02-11T07:19:30.833Z,11.90
2019-02-11T07:22:01.275Z,10.57
2019-02-11T07:24:32.781Z,10.50
2019-02-11T07:27:03.314Z,10.37
2019-02-11T07:29:33.998Z,9.77
2019-02-11T07:32:04.444Z,9.73
2019-02-11T07:34:35.676Z,9.83
2019-02-11T07:37:06.634Z,10.23
2019-02-11T07:39:37.223Z,10.27
2019-02-11T07:42:09.323Z,10.53
2019-02-11T07:44:41.659Z,11.17
2019-02-11T07:47:12.528Z,11.13
2019-02-11T07:49:43.210Z,10.90
2019-02-11T07:52:13.709Z,10.67
2019-02-11T07:54:44.197Z,9.63
2019-02-11T07:57:15.420Z,11.00
2019-02-11T07:59:45.907Z,10.20
2019-02-11T08:02:16.521Z,10.40
2019-02-11T08:04:47.404Z,10.00
2019-02-11T08:07:17.964Z,10.07
2019-02-11T08:09:48.506Z,11.23
2019-02-11T08:12:19.054Z,10.60
2019-02-11T08:14:49.534Z,10.10
2019-02-11T08:17:19.970Z,9.97
2019-02-11T08:19:50.466Z,10.67
2019-02-11T08:22:21.886Z,10.97
2019-02-11T08:24:52.243Z,10.43
2019-02-11T08:27:23.598Z,10.23
2019-02-11T08:29:59.727Z,10.37
2019-02-11T08:32:30.161Z,10.53
2019-02-11T08:35:01.372Z,10.90
2019-02-11T08:37:38.008Z,10.33
2019-02-11T08:40:14.132Z,10.60
2019-02-11T08:42:44.631Z,10.93
2019-02-11T08:45:15.213Z,11.23
2019-02-11T08:47:45.721Z,11.00
2019-02-11T08:50:16.337Z,11.20
2019-02-11T08:52:46.956Z,11.57
2019-02-11T08:55:17.403Z,11.03
2019-02-11T08:57:49.468Z,11.37
2019-02-11T09:00:19.979Z,12.37
2019-02-11T09:02:50.542Z,11.27
2019-02-11T09:05:21.147Z,11.63
2019-02-11T09:07:51.747Z,11.30
2019-02-11T09:10:22.220Z,12.40
2019-02-11T09:12:52.780Z,11.33
2019-02-11T09:15:23.353Z,12.13
2019-02-11T09:17:53.908Z,11.07
2019-02-11T09:20:27.675Z,12.20
2019-02-11T09:22:58.975Z,10.90
2019-02-11T09:25:29.418Z,11.30
2019-02-11T09:27:59.797Z,10.90
2019-02-11T09:30:31.122Z,11.27
2019-02-11T09:33:01.633Z,9.73
2019-02-11T09:35:33.360Z,9.53
2019-02-11T09:38:04.009Z,10.57
2019-02-11T09:40:34.370Z,8.27
2019-02-11T09:43:04.956Z,9.17
2019-02-11T09:45:35.516Z,8.23
2019-02-11T09:48:07.493Z,6.53
2019-02-11T09:50:44.442Z,7.07
2019-02-11T09:53:15.006Z,6.43
2019-02-11T09:55:52.223Z,5.67
2019-02-11T09:58:22.724Z,5.33
2019-02-11T10:00:53.431Z,6.73
2019-02-11T10:03:23.943Z,6.87
2019-02-11T10:05:54.341Z,7.23
2019-02-11T10:08:24.824Z,6.40
2019-02-11T10:10:55.318Z,10.27
2019-02-11T10:13:25.660Z,8.70
2019-02-11T10:15:56.183Z,6.80
2019-02-11T10:18:26.688Z,6.70
2019-02-11T10:20:57.221Z,5.23
2019-02-11T10:23:27.738Z,5.27
2019-02-11T10:25:58.267Z,4.00
2019-02-11T10:28:28.632Z,3.43
2019-02-11T10:30:59.242Z,2.67
2019-02-11T10:33:34.069Z,2.97
2019-02-11T10:36:05.484Z,3.10
2019-02-11T10:38:36.705Z,2.57
2019-02-11T10:41:07.397Z,2.47
2019-02-11T10:43:37.864Z,2.10
2019-02-11T10:46:08.433Z,1.47
2019-02-11T10:48:39.066Z,1.47
2019-02-11T10:51:09.572Z,1.80
2019-02-11T10:53:40.299Z,2.03
2019-02-11T10:56:10.929Z,1.80
2019-02-11T10:58:41.314Z,1.37
2019-02-11T11:01:15.536Z,1.57
2019-02-11T11:03:45.959Z,1.10
2019-02-11T11:06:16.507Z,1.17
2019-02-11T11:08:47.005Z,0.80
2019-02-11T11:11:17.640Z,0.97
2019-02-11T11:13:48.151Z,1.20
2019-02-11T11:16:18.670Z,1.20
2019-02-11T11:18:49.139Z,1.50
2019-02-11T11:21:19.801Z,1.20
2019-02-11T11:23:50.374Z,1.07
2019-02-11T11:26:21.228Z,0.93
2019-02-11T11:28:56.627Z,1.20
2019-02-11T11:31:27.315Z,1.33
2019-02-11T11:33:57.721Z,1.23
2019-02-11T11:36:29.204Z,1.20
2019-02-11T11:38:59.643Z,1.50
2019-02-11T11:41:30.339Z,2.40
2019-02-11T11:44:00.819Z,1.87
2019-02-11T11:46:41.342Z,1.40
2019-02-11T11:49:03.552Z,1.60
2019-02-11T11:54:17.026Z,1.10
2019-02-11T11:56:47.526Z,1.33
2019-02-11T11:59:18.001Z,0.93
2019-02-11T12:01:48.702Z,1.10
2019-02-11T12:04:19.295Z,1.30
2019-02-11T12:06:49.814Z,1.43
2019-02-11T12:09:23.735Z,1.20
2019-02-11T12:11:56.005Z,1.30
2019-02-11T12:14:26.446Z,1.17
2019-02-11T12:17:02.393Z,1.07
2019-02-11T12:19:31.663Z,1.40
2019-02-11T12:22:03.857Z,1.40
2019-02-11T12:24:34.698Z,1.30
2019-02-11T12:27:05.238Z,1.17
2019-02-11T12:29:35.797Z,1.33
2019-02-11T12:32:09.342Z,1.33
2019-02-11T12:34:39.911Z,1.30
2019-02-11T12:37:11.218Z,0.47
2019-02-11T12:39:41.701Z,1.13
2019-02-11T12:42:13.188Z,0.83
2019-02-11T12:44:43.919Z,0.83
2019-02-11T12:47:15.308Z,0.70
2019-02-11T12:49:46.015Z,0.73
2019-02-11T12:52:16.430Z,0.63
2019-02-11T12:54:46.976Z,0.60
2019-02-11T12:57:17.365Z,1.20
2019-02-11T12:59:48.061Z,1.00
2019-02-11T13:02:18.762Z,0.60
2019-02-11T13:04:49.310Z,0.53
2019-02-11T13:07:20.187Z,1.37
2019-02-11T13:09:55.124Z,1.00
2019-02-11T13:12:25.687Z,0.80
2019-02-11T13:14:56.116Z,0.90
2019-02-11T13:17:34.257Z,1.00
2019-02-11T13:20:08.274Z,0.67
2019-02-11T13:22:31.050Z,0.80
2019-02-11T13:25:07.401Z,1.00
2019-02-11T13:27:34.711Z,0.90
2019-02-11T13:30:08.933Z,1.40
2019-02-11T13:32:39.388Z,1.13
2019-02-11T13:35:09.958Z,1.00
2019-02-11T13:37:41.818Z,1.00
2019-02-11T13:40:12.453Z,0.80
2019-02-11T13:42:43.135Z,1.07
2019-02-11T13:45:20.449Z,0.70
2019-02-11T13:47:55.967Z,0.97
2019-02-11T13:50:28.516Z,0.83
2019-02-11T13:52:59.457Z,0.80
2019-02-11T13:55:31.647Z,1.27
2019-02-11T13:58:02.813Z,0.80
2019-02-11T14:00:35.183Z,0.90
2019-02-11T14:03:08.878Z,0.80
2019-02-11T14:05:39.487Z,0.80
2019-02-11T14:08:10.084Z,0.70
2019-02-11T14:10:40.618Z,0.80
2019-02-11T14:13:11.248Z,0.80
2019-02-11T14:15:41.616Z,0.90
2019-02-11T14:18:14.784Z,0.90
2019-02-11T14:20:49.243Z,0.90
2019-02-11T14:23:17.173Z,1.30
2019-02-11T14:25:47.868Z,1.90
2019-02-11T14:28:21.082Z,1.70
2019-02-11T14:30:51.469Z,1.10
2019-02-11T14:33:24.632Z,1.30
2019-02-11T14:35:56.031Z,1.30
2019-02-11T14:38:27.313Z,1.10
2019-02-11T14:40:58.691Z,1.37
2019-02-11T14:43:29.135Z,1.33
2019-02-11T14:45:59.627Z,1.80
2019-02-11T14:48:30.043Z,1.43
2019-02-11T14:51:00.505Z,1.50
2019-02-11T14:53:30.942Z,1.50
2019-02-11T14:56:01.352Z,1.10
2019-02-11T14:58:31.899Z,1.33
2019-02-11T15:01:02.398Z,1.10
2019-02-11T15:03:32.789Z,1.10
2019-02-11T15:06:03.175Z,1.40
2019-02-11T15:08:33.646Z,1.47
2019-02-11T15:11:04.671Z,1.23
2019-02-11T15:13:37.267Z,1.27
2019-02-11T15:16:07.694Z,1.40
2019-02-11T15:18:38.223Z,1.20
2019-02-11T15:21:08.798Z,1.80
2019-02-11T15:23:39.341Z,1.20
2019-02-11T15:26:09.830Z,1.50
2019-02-11T15:28:40.378Z,1.60
2019-02-11T15:31:10.843Z,1.67
2019-02-11T15:33:41.410Z,1.60
2019-02-11T15:36:11.921Z,1.83
2019-02-11T15:38:43.306Z,1.67
2019-02-11T15:41:13.704Z,1.73
2019-02-11T15:43:44.185Z,1.30
2019-02-11T15:46:14.656Z,1.57
2019-02-11T15:48:45.164Z,3.03
2019-02-11T15:51:15.633Z,1.80
2019-02-11T15:53:46.028Z,1.53
2019-02-11T15:56:16.657Z,1.40
2019-02-11T15:58:47.732Z,1.50
2019-02-11T16:01:18.207Z,1.47
2019-02-11T16:03:50.102Z,1.23
2019-02-11T16:06:22.519Z,1.83
2019-02-11T16:08:52.955Z,1.67
2019-02-11T16:11:24.345Z,1.33
2019-02-11T16:13:54.809Z,1.53
2019-02-11T16:16:25.727Z,1.93
2019-02-11T16:18:56.340Z,1.83
2019-02-11T16:21:27.064Z,1.80
2019-02-11T16:23:57.479Z,1.87
2019-02-11T16:26:28.018Z,2.03
2019-02-11T16:28:59.202Z,1.80
2019-02-11T16:31:29.804Z,1.80
2019-02-11T16:34:01.267Z,2.30
2019-02-11T16:36:32.471Z,2.00
2019-02-11T16:39:05.087Z,2.53
2019-02-11T16:41:35.869Z,2.40
2019-02-11T16:44:06.420Z,2.70
2019-02-11T16:46:37.827Z,2.53
2019-02-11T16:49:08.351Z,3.20
2019-02-11T16:51:38.942Z,2.57
2019-02-11T16:54:09.797Z,2.37
2019-02-11T16:56:40.239Z,2.50
2019-02-11T16:59:10.814Z,3.60
2019-02-11T17:01:41.300Z,2.70
2019-02-11T17:04:11.726Z,2.13
2019-02-11T17:06:42.195Z,2.23
2019-02-11T17:09:12.792Z,2.03
2019-02-11T17:11:43.191Z,4.57
2019-02-11T17:14:13.590Z,1.80
2019-02-11T17:16:45.134Z,2.20
2019-02-11T17:19:15.627Z,2.43
2019-02-11T17:21:46.208Z,2.17
2019-02-11T17:24:17.630Z,2.67
2019-02-11T17:26:48.081Z,2.73
2019-02-11T17:29:18.564Z,2.67
2019-02-11T17:31:49.132Z,2.27
2019-02-11T17:34:19.677Z,2.80
2019-02-11T17:36:50.098Z,2.07
2019-02-11T17:39:21.462Z,2.93
2019-02-11T17:41:52.147Z,2.20
2019-02-11T17:44:22.700Z,2.17
2019-02-11T17:46:53.425Z,2.60
2019-02-11T17:49:24.056Z,2.40
2019-02-11T17:51:54.969Z,2.27
2019-02-11T17:54:25.502Z,2.13
2019-02-11T17:56:56.143Z,2.70
2019-02-11T17:59:26.581Z,2.40
2019-02-11T18:01:57.132Z,2.73
2019-02-11T18:04:27.665Z,2.20
2019-02-11T18:06:58.160Z,2.53
2019-02-11T18:09:28.703Z,2.20
2019-02-11T18:12:00.386Z,2.00
2019-02-11T18:14:30.894Z,2.50
2019-02-11T18:17:01.637Z,2.43
2019-02-11T18:19:32.220Z,2.67
2019-02-11T18:22:02.698Z,2.63
2019-02-11T18:24:33.253Z,2.97
2019-02-11T18:27:03.843Z,3.00
2019-02-11T18:29:34.591Z,2.37
2019-02-11T18:32:06.138Z,2.33
2019-02-11T18:34:36.724Z,2.13
2019-02-11T18:37:07.373Z,2.10
2019-02-11T18:39:38.565Z,2.60
2019-02-11T18:42:09.276Z,2.37
2019-02-11T18:44:42.982Z,2.70
2019-02-11T18:47:13.499Z,2.43
2019-02-11T18:49:43.891Z,1.80
2019-02-11T18:52:14.415Z,2.60
2019-02-11T18:54:44.929Z,1.90
2019-02-11T18:57:15.583Z,2.03
2019-02-11T18:59:46.006Z,1.93
2019-02-11T19:02:16.892Z,1.70
2019-02-11T19:04:47.386Z,2.70
2019-02-11T19:07:18.262Z,1.90
2019-02-11T19:09:48.848Z,2.00
2019-02-11T19:12:20.889Z,2.20
2019-02-11T19:14:52.005Z,2.10
2019-02-11T19:17:25.557Z,1.80
2019-02-11T19:19:56.070Z,1.83
2019-02-11T19:22:27.531Z,2.47
2019-02-11T19:24:59.681Z,1.87
2019-02-11T19:27:30.522Z,2.07
2019-02-11T19:30:00.978Z,2.00
2019-02-11T19:32:31.857Z,2.20
2019-02-11T19:35:03.266Z,2.20
2019-02-11T19:37:33.822Z,2.43
2019-02-11T19:40:08.886Z,2.67
2019-02-11T19:42:39.529Z,2.67
2019-02-11T19:45:21.660Z,3.00
2019-02-11T19:47:52.306Z,2.33
2019-02-11T19:50:22.819Z,2.70
2019-02-11T19:52:54.441Z,2.73
2019-02-11T19:55:25.660Z,3.80
2019-02-11T19:57:56.113Z,2.37
2019-02-11T20:00:26.686Z,2.67
2019-02-11T20:02:57.273Z,2.93
2019-02-11T20:05:27.930Z,2.37
2019-02-11T20:07:58.437Z,2.30
2019-02-11T20:10:30.406Z,2.27
2019-02-11T20:13:00.961Z,2.27
2019-02-11T20:15:32.654Z,2.17
2019-02-11T20:18:03.237Z,2.10
2019-02-11T20:20:33.755Z,2.13
2019-02-11T20:23:04.392Z,1.57
2019-02-11T20:25:35.013Z,1.97
2019-02-11T20:28:06.456Z,2.23
2019-02-11T20:30:37.165Z,2.30
2019-02-11T20:33:07.666Z,2.03
2019-02-11T20:35:38.498Z,2.27
2019-02-11T20:38:09.032Z,1.77
2019-02-11T20:40:40.295Z,2.23
2019-02-11T20:43:10.784Z,1.80
2019-02-11T20:45:41.724Z,1.60
2019-02-11T20:48:13.889Z,2.40
2019-02-11T20:50:44.376Z,1.83
2019-02-11T20:53:14.833Z,1.60
2019-02-11T20:55:45.350Z,1.87
2019-02-11T20:58:15.889Z,2.33
2019-02-11T21:00:47.739Z,1.90
2019-02-11T21:03:18.218Z,1.73
2019-02-11T21:05:48.683Z,1.60
2019-02-11T21:08:19.089Z,1.60
2019-02-11T21:10:49.573Z,1.37
2019-02-11T21:13:20.080Z,2.10
2019-02-11T21:15:50.630Z,1.80
2019-02-11T21:18:21.230Z,1.97
2019-02-11T21:20:52.075Z,1.50
2019-02-11T21:23:22.609Z,1.50
2019-02-11T21:25:53.259Z,1.63
2019-02-11T21:28:23.672Z,2.37
2019-02-11T21:30:54.255Z,1.80
2019-02-11T21:33:24.689Z,1.73
2019-02-11T21:35:55.326Z,1.63
2019-02-11T21:38:25.948Z,1.43
2019-02-11T21:40:57.119Z,1.50
2019-02-11T21:43:28.090Z,2.07
2019-02-11T21:45:58.678Z,1.50
2019-02-11T21:48:29.172Z,1.43
2019-02-11T21:50:59.628Z,1.60
2019-02-11T21:53:30.133Z,2.53
2019-02-11T21:56:01.509Z,1.97
2019-02-11T21:58:31.921Z,1.73
2019-02-11T22:01:02.772Z,1.80
2019-02-11T22:03:34.951Z,2.07
2019-02-11T22:06:05.501Z,1.67
2019-02-11T22:08:35.924Z,1.83
2019-02-11T22:11:06.412Z,1.77
2019-02-11T22:13:36.857Z,3.00
2019-02-11T22:16:07.326Z,2.67
2019-02-11T22:18:37.815Z,3.07
2019-02-11T22:21:08.295Z,2.67
2019-02-11T22:23:38.951Z,2.73
2019-02-11T22:26:09.391Z,2.40
2019-02-11T22:28:39.816Z,2.83
2019-02-11T22:31:10.218Z,2.60
2019-02-11T22:33:40.600Z,2.77
2019-02-11T22:36:11.148Z,2.80
2019-02-11T22:38:42.651Z,2.10
2019-02-11T22:41:13.940Z,2.37
2019-02-11T22:43:44.484Z,3.00
2019-02-11T22:46:14.881Z,2.27
2019-02-11T22:48:45.248Z,2.00
2019-02-11T22:51:15.811Z,2.40
2019-02-11T22:53:46.340Z,2.17
2019-02-11T22:56:16.922Z,2.20
2019-02-11T22:58:47.294Z,2.60
2019-02-11T23:01:18.568Z,2.23
2019-02-11T23:03:49.161Z,2.43
2019-02-11T23:06:19.588Z,1.93
2019-02-11T23:08:50.076Z,2.17
2019-02-11T23:11:20.780Z,2.50
2019-02-11T23:13:51.291Z,2.40
2019-02-11T23:16:21.858Z,2.00
2019-02-11T23:18:52.317Z,2.20
2019-02-11T23:21:22.848Z,2.70
2019-02-11T23:23:53.301Z,2.10
2019-02-11T23:26:23.773Z,1.83
2019-02-11T23:28:54.226Z,2.40
2019-02-11T23:31:24.764Z,2.03
2019-02-11T23:33:55.171Z,2.17
2019-02-11T23:36:25.784Z,1.87
2019-02-11T23:38:56.239Z,1.73
2019-02-11T23:41:27.510Z,2.07
2019-02-11T23:43:57.997Z,1.83
2019-02-11T23:46:28.884Z,2.30
2019-02-11T23:48:59.377Z,2.03
2019-02-11T23:51:29.858Z,2.53
2019-02-11T23:54:00.319Z,2.67
2019-02-11T23:56:30.825Z,2.17
2019-02-11T23:59:01.359Z,2.13
